sensor_id;sensor_type;location;lat;lon;timestamp;P1;durP1;ratioP1;P2;durP2;ratioP2
2720;SDS011;1368;49.484;11.112;2023-05-23T00:02:18;21.43;;;18.17;;
2720;SDS011;1368;49.484;11.112;2023-05-23T00:04:44;21.67;;;17.67;;
2720;SDS011;1368;49.484;11.112;2023-05-23T00:07:09;23.57;;;18.10;;
2720;SDS011;1368;49.484;11.112;2023-05-23T00:09:35;21.20;;;18.90;;
2720;SDS011;1368;49.484;11.112;2023-05-23T00:12:01;21.30;;;17.90;;
2720;SDS011;1368;49.484;11.112;2023-05-23T00:14:26;21.83;;;18.43;;
2720;SDS011;1368;49.484;11.112;2023-05-23T00:16:57;21.83;;;18.93;;
2720;SDS011;1368;49.484;11.112;2023-05-23T00:19:24;20.17;;;18.03;;
2720;SDS011;1368;49.484;11.112;2023-05-23T00:21:49;21.13;;;17.00;;
2720;SDS011;1368;49.484;11.112;2023-05-23T00:24:17;22.63;;;19.03;;
2720;SDS011;1368;49.484;11.112;2023-05-23T00:26:44;19.23;;;16.33;;
2720;SDS011;1368;49.484;11.112;2023-05-23T00:29:10;20.23;;;18.00;;
2720;SDS011;1368;49.484;11.112;2023-05-23T00:31:43;21.13;;;17.20;;
2720;SDS011;1368;49.484;11.112;2023-05-23T00:34:10;18.47;;;16.50;;
2720;SDS011;1368;49.484;11.112;2023-05-23T00:36:37;20.20;;;17.07;;
2720;SDS011;1368;49.484;11.112;2023-05-23T00:39:03;22.10;;;18.27;;
2720;SDS011;1368;49.484;11.112;2023-05-23T00:41:29;20.20;;;17.97;;
2720;SDS011;1368;49.484;11.112;2023-05-23T00:43:55;19.67;;;16.57;;
2720;SDS011;1368;49.484;11.112;2023-05-23T00:46:23;21.30;;;18.70;;
2720;SDS011;1368;49.484;11.112;2023-05-23T00:48:53;25.53;;;18.23;;
2720;SDS011;1368;49.484;11.112;2023-05-23T00:51:19;22.73;;;18.93;;
2720;SDS011;1368;49.484;11.112;2023-05-23T00:53:45;22.90;;;18.40;;
2720;SDS011;1368;49.484;11.112;2023-05-23T00:56:11;21.20;;;19.10;;
2720;SDS011;1368;49.484;11.112;2023-05-23T00:58:37;22.53;;;18.20;;
2720;SDS011;1368;49.484;11.112;2023-05-23T01:01:04;22.13;;;19.87;;
2720;SDS011;1368;49.484;11.112;2023-05-23T01:03:29;24.27;;;19.10;;
2720;SDS011;1368;49.484;11.112;2023-05-23T01:05:55;23.60;;;17.93;;
2720;SDS011;1368;49.484;11.112;2023-05-23T01:08:21;22.00;;;19.60;;
2720;SDS011;1368;49.484;11.112;2023-05-23T01:10:47;23.10;;;18.50;;
2720;SDS011;1368;49.484;11.112;2023-05-23T01:13:21;21.67;;;18.23;;
2720;SDS011;1368;49.484;11.112;2023-05-23T01:16:05;22.73;;;19.10;;
2720;SDS011;1368;49.484;11.112;2023-05-23T01:18:36;25.10;;;20.27;;
2720;SDS011;1368;49.484;11.112;2023-05-23T01:21:35;27.77;;;18.97;;
2720;SDS011;1368;49.484;11.112;2023-05-23T01:29:44;25.83;;;19.27;;
2720;SDS011;1368;49.484;11.112;2023-05-23T01:32:13;25.10;;;20.97;;
2720;SDS011;1368;49.484;11.112;2023-05-23T01:34:40;23.83;;;20.50;;
2720;SDS011;1368;49.484;11.112;2023-05-23T01:37:07;22.30;;;19.30;;
2720;SDS011;1368;49.484;11.112;2023-05-23T01:39:34;26.10;;;19.80;;
2720;SDS011;1368;49.484;11.112;2023-05-23T01:42:01;25.43;;;20.57;;
2720;SDS011;1368;49.484;11.112;2023-05-23T01:44:26;21.83;;;18.50;;
2720;SDS011;1368;49.484;11.112;2023-05-23T01:46:52;24.83;;;19.07;;
2720;SDS011;1368;49.484;11.112;2023-05-23T01:49:18;25.63;;;20.13;;
2720;SDS011;1368;49.484;11.112;2023-05-23T01:51:45;24.27;;;20.60;;
2720;SDS011;1368;49.484;11.112;2023-05-23T01:54:12;21.80;;;19.57;;
2720;SDS011;1368;49.484;11.112;2023-05-23T01:56:40;23.57;;;19.90;;
2720;SDS011;1368;49.484;11.112;2023-05-23T01:59:07;25.47;;;21.23;;
2720;SDS011;1368;49.484;11.112;2023-05-23T02:01:33;24.67;;;21.17;;
2720;SDS011;1368;49.484;11.112;2023-05-23T02:03:59;25.23;;;21.00;;
2720;SDS011;1368;49.484;11.112;2023-05-23T02:06:24;26.10;;;21.33;;
2720;SDS011;1368;49.484;11.112;2023-05-23T02:08:50;23.27;;;20.60;;
2720;SDS011;1368;49.484;11.112;2023-05-23T02:11:16;23.63;;;20.53;;
2720;SDS011;1368;49.484;11.112;2023-05-23T02:13:41;25.90;;;20.47;;
2720;SDS011;1368;49.484;11.112;2023-05-23T02:16:07;23.97;;;21.23;;
2720;SDS011;1368;49.484;11.112;2023-05-23T02:18:32;27.37;;;21.07;;
2720;SDS011;1368;49.484;11.112;2023-05-23T02:20:58;26.57;;;21.60;;
2720;SDS011;1368;49.484;11.112;2023-05-23T02:23:23;26.40;;;22.40;;
2720;SDS011;1368;49.484;11.112;2023-05-23T02:25:49;23.00;;;20.03;;
2720;SDS011;1368;49.484;11.112;2023-05-23T02:28:14;26.00;;;22.00;;
2720;SDS011;1368;49.484;11.112;2023-05-23T02:30:40;21.83;;;19.60;;
2720;SDS011;1368;49.484;11.112;2023-05-23T02:33:06;23.17;;;20.70;;
2720;SDS011;1368;49.484;11.112;2023-05-23T02:35:32;23.53;;;20.37;;
2720;SDS011;1368;49.484;11.112;2023-05-23T02:37:58;23.63;;;20.10;;
2720;SDS011;1368;49.484;11.112;2023-05-23T02:40:24;25.17;;;22.37;;
2720;SDS011;1368;49.484;11.112;2023-05-23T02:42:50;23.90;;;21.03;;
2720;SDS011;1368;49.484;11.112;2023-05-23T02:45:15;27.37;;;21.63;;
2720;SDS011;1368;49.484;11.112;2023-05-23T02:47:41;23.07;;;20.67;;
2720;SDS011;1368;49.484;11.112;2023-05-23T02:50:07;25.80;;;21.37;;
2720;SDS011;1368;49.484;11.112;2023-05-23T02:52:33;25.27;;;21.00;;
2720;SDS011;1368;49.484;11.112;2023-05-23T02:54:58;25.90;;;21.80;;
2720;SDS011;1368;49.484;11.112;2023-05-23T02:57:24;24.87;;;22.07;;
2720;SDS011;1368;49.484;11.112;2023-05-23T02:59:50;26.03;;;21.90;;
2720;SDS011;1368;49.484;11.112;2023-05-23T03:02:15;27.83;;;22.20;;
2720;SDS011;1368;49.484;11.112;2023-05-23T03:04:41;25.47;;;22.00;;
2720;SDS011;1368;49.484;11.112;2023-05-23T03:07:06;24.30;;;21.60;;
2720;SDS011;1368;49.484;11.112;2023-05-23T03:09:35;23.70;;;21.07;;
2720;SDS011;1368;49.484;11.112;2023-05-23T03:12:00;24.93;;;21.97;;
2720;SDS011;1368;49.484;11.112;2023-05-23T03:14:26;24.77;;;21.97;;
2720;SDS011;1368;49.484;11.112;2023-05-23T03:16:51;27.27;;;20.93;;
2720;SDS011;1368;49.484;11.112;2023-05-23T03:19:17;23.37;;;20.40;;
2720;SDS011;1368;49.484;11.112;2023-05-23T03:21:42;24.47;;;21.03;;
2720;SDS011;1368;49.484;11.112;2023-05-23T03:24:08;25.30;;;21.43;;
2720;SDS011;1368;49.484;11.112;2023-05-23T03:26:34;24.17;;;20.93;;
2720;SDS011;1368;49.484;11.112;2023-05-23T03:29:00;24.93;;;21.47;;
2720;SDS011;1368;49.484;11.112;2023-05-23T03:31:26;22.43;;;19.80;;
2720;SDS011;1368;49.484;11.112;2023-05-23T03:33:51;24.30;;;19.93;;
2720;SDS011;1368;49.484;11.112;2023-05-23T03:36:17;27.80;;;22.07;;
2720;SDS011;1368;49.484;11.112;2023-05-23T03:38:43;23.37;;;20.13;;
2720;SDS011;1368;49.484;11.112;2023-05-23T03:41:08;24.07;;;20.80;;
2720;SDS011;1368;49.484;11.112;2023-05-23T03:43:34;27.90;;;22.30;;
2720;SDS011;1368;49.484;11.112;2023-05-23T03:45:59;26.60;;;21.27;;
2720;SDS011;1368;49.484;11.112;2023-05-23T03:48:25;24.73;;;20.60;;
2720;SDS011;1368;49.484;11.112;2023-05-23T03:50:50;24.60;;;21.00;;
2720;SDS011;1368;49.484;11.112;2023-05-23T03:53:16;24.03;;;20.73;;
2720;SDS011;1368;49.484;11.112;2023-05-23T03:55:42;24.20;;;20.27;;
2720;SDS011;1368;49.484;11.112;2023-05-23T03:58:07;27.10;;;21.60;;
2720;SDS011;1368;49.484;11.112;2023-05-23T04:00:33;20.17;;;17.90;;
2720;SDS011;1368;49.484;11.112;2023-05-23T04:02:58;25.27;;;20.87;;
2720;SDS011;1368;49.484;11.112;2023-05-23T04:05:24;28.70;;;20.40;;
2720;SDS011;1368;49.484;11.112;2023-05-23T04:07:50;22.40;;;19.53;;
2720;SDS011;1368;49.484;11.112;2023-05-23T04:10:16;22.37;;;19.70;;
2720;SDS011;1368;49.484;11.112;2023-05-23T04:12:42;22.80;;;20.37;;
2720;SDS011;1368;49.484;11.112;2023-05-23T04:15:08;24.97;;;20.43;;
2720;SDS011;1368;49.484;11.112;2023-05-23T04:17:34;22.23;;;18.70;;
2720;SDS011;1368;49.484;11.112;2023-05-23T04:19:59;23.10;;;18.80;;
2720;SDS011;1368;49.484;11.112;2023-05-23T04:22:25;21.27;;;18.80;;
2720;SDS011;1368;49.484;11.112;2023-05-23T04:24:50;22.10;;;19.20;;
2720;SDS011;1368;49.484;11.112;2023-05-23T04:27:16;22.30;;;18.60;;
2720;SDS011;1368;49.484;11.112;2023-05-23T04:29:41;24.27;;;19.90;;
2720;SDS011;1368;49.484;11.112;2023-05-23T04:32:08;21.77;;;19.00;;
2720;SDS011;1368;49.484;11.112;2023-05-23T04:34:34;22.67;;;18.90;;
2720;SDS011;1368;49.484;11.112;2023-05-23T04:36:59;25.00;;;19.57;;
2720;SDS011;1368;49.484;11.112;2023-05-23T04:39:28;23.67;;;20.70;;
2720;SDS011;1368;49.484;11.112;2023-05-23T04:41:54;20.57;;;18.43;;
2720;SDS011;1368;49.484;11.112;2023-05-23T04:44:20;23.27;;;20.40;;
2720;SDS011;1368;49.484;11.112;2023-05-23T04:46:50;26.80;;;19.60;;
2720;SDS011;1368;49.484;11.112;2023-05-23T04:49:16;21.93;;;18.27;;
2720;SDS011;1368;49.484;11.112;2023-05-23T04:51:42;20.40;;;18.20;;
2720;SDS011;1368;49.484;11.112;2023-05-23T04:54:08;22.13;;;18.37;;
2720;SDS011;1368;49.484;11.112;2023-05-23T04:56:33;28.63;;;19.23;;
2720;SDS011;1368;49.484;11.112;2023-05-23T04:58:59;21.73;;;19.23;;
2720;SDS011;1368;49.484;11.112;2023-05-23T05:01:25;20.80;;;18.60;;
2720;SDS011;1368;49.484;11.112;2023-05-23T05:03:51;21.37;;;18.00;;
2720;SDS011;1368;49.484;11.112;2023-05-23T05:06:35;18.93;;;15.93;;
2720;SDS011;1368;49.484;11.112;2023-05-23T05:09:02;18.27;;;16.23;;
2720;SDS011;1368;49.484;11.112;2023-05-23T05:11:27;16.40;;;14.70;;
2720;SDS011;1368;49.484;11.112;2023-05-23T05:13:53;18.50;;;15.63;;
2720;SDS011;1368;49.484;11.112;2023-05-23T05:16:18;18.27;;;15.63;;
2720;SDS011;1368;49.484;11.112;2023-05-23T05:18:44;17.53;;;15.70;;
2720;SDS011;1368;49.484;11.112;2023-05-23T05:21:10;15.20;;;13.80;;
2720;SDS011;1368;49.484;11.112;2023-05-23T05:23:35;16.63;;;14.53;;
2720;SDS011;1368;49.484;11.112;2023-05-23T05:26:01;15.93;;;14.20;;
2720;SDS011;1368;49.484;11.112;2023-05-23T05:28:27;31.00;;;15.10;;
2720;SDS011;1368;49.484;11.112;2023-05-23T05:30:52;17.13;;;14.77;;
2720;SDS011;1368;49.484;11.112;2023-05-23T05:33:20;20.30;;;15.97;;
2720;SDS011;1368;49.484;11.112;2023-05-23T05:35:49;19.27;;;13.93;;
2720;SDS011;1368;49.484;11.112;2023-05-23T05:38:15;15.03;;;13.50;;
2720;SDS011;1368;49.484;11.112;2023-05-23T05:40:41;15.67;;;14.07;;
2720;SDS011;1368;49.484;11.112;2023-05-23T05:43:07;16.10;;;14.47;;
2720;SDS011;1368;49.484;11.112;2023-05-23T05:45:32;16.07;;;13.50;;
2720;SDS011;1368;49.484;11.112;2023-05-23T05:47:58;14.87;;;13.27;;
2720;SDS011;1368;49.484;11.112;2023-05-23T05:50:23;16.23;;;14.27;;
2720;SDS011;1368;49.484;11.112;2023-05-23T05:52:49;16.90;;;13.83;;
2720;SDS011;1368;49.484;11.112;2023-05-23T05:55:15;15.37;;;13.53;;
2720;SDS011;1368;49.484;11.112;2023-05-23T05:57:40;16.03;;;14.53;;
2720;SDS011;1368;49.484;11.112;2023-05-23T06:00:07;14.93;;;13.40;;
2720;SDS011;1368;49.484;11.112;2023-05-23T06:02:40;16.00;;;14.40;;
2720;SDS011;1368;49.484;11.112;2023-05-23T06:05:15;14.13;;;12.67;;
2720;SDS011;1368;49.484;11.112;2023-05-23T06:07:41;14.33;;;12.93;;
2720;SDS011;1368;49.484;11.112;2023-05-23T06:10:07;14.93;;;13.50;;
2720;SDS011;1368;49.484;11.112;2023-05-23T06:12:36;13.50;;;12.20;;
2720;SDS011;1368;49.484;11.112;2023-05-23T06:15:02;14.73;;;13.00;;
2720;SDS011;1368;49.484;11.112;2023-05-23T06:17:28;16.73;;;12.70;;
2720;SDS011;1368;49.484;11.112;2023-05-23T06:19:54;14.70;;;13.30;;
2720;SDS011;1368;49.484;11.112;2023-05-23T06:22:19;17.50;;;12.60;;
2720;SDS011;1368;49.484;11.112;2023-05-23T06:24:45;14.40;;;12.90;;
2720;SDS011;1368;49.484;11.112;2023-05-23T06:27:11;17.20;;;13.73;;
2720;SDS011;1368;49.484;11.112;2023-05-23T06:29:37;14.37;;;12.83;;
2720;SDS011;1368;49.484;11.112;2023-05-23T06:32:03;15.80;;;13.07;;
2720;SDS011;1368;49.484;11.112;2023-05-23T06:34:29;14.33;;;12.83;;
2720;SDS011;1368;49.484;11.112;2023-05-23T06:36:54;19.73;;;14.30;;
2720;SDS011;1368;49.484;11.112;2023-05-23T06:39:20;14.37;;;12.90;;
2720;SDS011;1368;49.484;11.112;2023-05-23T06:41:45;14.90;;;12.40;;
2720;SDS011;1368;49.484;11.112;2023-05-23T06:44:11;14.30;;;12.80;;
2720;SDS011;1368;49.484;11.112;2023-05-23T06:46:37;15.53;;;12.87;;
2720;SDS011;1368;49.484;11.112;2023-05-23T06:49:02;14.80;;;12.90;;
2720;SDS011;1368;49.484;11.112;2023-05-23T06:51:28;13.10;;;11.30;;
2720;SDS011;1368;49.484;11.112;2023-05-23T06:53:53;13.20;;;11.80;;
2720;SDS011;1368;49.484;11.112;2023-05-23T06:56:20;17.00;;;13.20;;
2720;SDS011;1368;49.484;11.112;2023-05-23T06:58:50;17.20;;;13.50;;
2720;SDS011;1368;49.484;11.112;2023-05-23T07:01:15;15.27;;;13.17;;
2720;SDS011;1368;49.484;11.112;2023-05-23T07:03:41;15.77;;;14.17;;
2720;SDS011;1368;49.484;11.112;2023-05-23T07:06:09;13.23;;;11.87;;
2720;SDS011;1368;49.484;11.112;2023-05-23T07:08:34;14.47;;;12.97;;
2720;SDS011;1368;49.484;11.112;2023-05-23T07:11:00;16.60;;;14.33;;
2720;SDS011;1368;49.484;11.112;2023-05-23T07:13:26;13.30;;;12.00;;
2720;SDS011;1368;49.484;11.112;2023-05-23T07:15:51;15.93;;;14.33;;
2720;SDS011;1368;49.484;11.112;2023-05-23T07:18:17;14.83;;;13.27;;
2720;SDS011;1368;49.484;11.112;2023-05-23T07:20:42;15.57;;;13.93;;
2720;SDS011;1368;49.484;11.112;2023-05-23T07:23:08;16.63;;;14.20;;
2720;SDS011;1368;49.484;11.112;2023-05-23T07:25:33;17.27;;;14.70;;
2720;SDS011;1368;49.484;11.112;2023-05-23T07:27:59;17.43;;;15.03;;
2720;SDS011;1368;49.484;11.112;2023-05-23T07:30:24;16.57;;;14.63;;
2720;SDS011;1368;49.484;11.112;2023-05-23T07:32:50;19.93;;;14.63;;
2720;SDS011;1368;49.484;11.112;2023-05-23T07:35:19;17.30;;;14.57;;
2720;SDS011;1368;49.484;11.112;2023-05-23T07:37:49;17.73;;;15.83;;
2720;SDS011;1368;49.484;11.112;2023-05-23T07:40:18;19.80;;;13.63;;
2720;SDS011;1368;49.484;11.112;2023-05-23T07:42:44;15.47;;;13.53;;
2720;SDS011;1368;49.484;11.112;2023-05-23T07:45:10;16.90;;;14.17;;
2720;SDS011;1368;49.484;11.112;2023-05-23T07:47:36;20.77;;;14.90;;
2720;SDS011;1368;49.484;11.112;2023-05-23T07:50:02;17.77;;;14.63;;
2720;SDS011;1368;49.484;11.112;2023-05-23T07:52:28;16.40;;;14.03;;
2720;SDS011;1368;49.484;11.112;2023-05-23T07:54:55;20.20;;;15.80;;
2720;SDS011;1368;49.484;11.112;2023-05-23T07:57:20;19.23;;;14.87;;
2720;SDS011;1368;49.484;11.112;2023-05-23T07:59:46;18.20;;;14.43;;
2720;SDS011;1368;49.484;11.112;2023-05-23T08:02:11;14.27;;;12.63;;
2720;SDS011;1368;49.484;11.112;2023-05-23T08:04:37;14.17;;;12.40;;
2720;SDS011;1368;49.484;11.112;2023-05-23T08:07:04;15.37;;;13.57;;
2720;SDS011;1368;49.484;11.112;2023-05-23T08:09:30;18.00;;;13.50;;
2720;SDS011;1368;49.484;11.112;2023-05-23T08:11:55;14.77;;;13.37;;
2720;SDS011;1368;49.484;11.112;2023-05-23T08:14:21;16.37;;;14.63;;
2720;SDS011;1368;49.484;11.112;2023-05-23T08:16:46;18.67;;;13.90;;
2720;SDS011;1368;49.484;11.112;2023-05-23T08:19:12;15.00;;;13.40;;
2720;SDS011;1368;49.484;11.112;2023-05-23T08:21:38;15.83;;;14.17;;
2720;SDS011;1368;49.484;11.112;2023-05-23T08:24:04;14.20;;;12.70;;
2720;SDS011;1368;49.484;11.112;2023-05-23T08:26:29;14.03;;;12.53;;
2720;SDS011;1368;49.484;11.112;2023-05-23T08:28:59;15.53;;;11.23;;
2720;SDS011;1368;49.484;11.112;2023-05-23T08:31:26;14.07;;;12.63;;
2720;SDS011;1368;49.484;11.112;2023-05-23T08:33:52;13.80;;;11.97;;
2720;SDS011;1368;49.484;11.112;2023-05-23T08:36:17;12.57;;;11.23;;
2720;SDS011;1368;49.484;11.112;2023-05-23T08:38:43;15.60;;;12.50;;
2720;SDS011;1368;49.484;11.112;2023-05-23T08:41:11;16.73;;;13.47;;
2720;SDS011;1368;49.484;11.112;2023-05-23T08:43:42;14.57;;;12.83;;
2720;SDS011;1368;49.484;11.112;2023-05-23T08:46:08;13.33;;;11.93;;
2720;SDS011;1368;49.484;11.112;2023-05-23T08:48:34;14.00;;;12.60;;
2720;SDS011;1368;49.484;11.112;2023-05-23T08:51:03;15.23;;;12.37;;
2720;SDS011;1368;49.484;11.112;2023-05-23T08:53:29;14.30;;;12.37;;
2720;SDS011;1368;49.484;11.112;2023-05-23T08:55:56;13.30;;;11.90;;
2720;SDS011;1368;49.484;11.112;2023-05-23T08:58:26;13.43;;;12.13;;
2720;SDS011;1368;49.484;11.112;2023-05-23T09:00:53;13.73;;;12.43;;
2720;SDS011;1368;49.484;11.112;2023-05-23T09:03:19;12.57;;;11.27;;
2720;SDS011;1368;49.484;11.112;2023-05-23T09:05:46;13.43;;;10.67;;
2720;SDS011;1368;49.484;11.112;2023-05-23T09:08:12;12.57;;;11.27;;
2720;SDS011;1368;49.484;11.112;2023-05-23T09:10:39;15.00;;;12.43;;
2720;SDS011;1368;49.484;11.112;2023-05-23T09:13:05;11.97;;;10.70;;
2720;SDS011;1368;49.484;11.112;2023-05-23T09:15:31;16.10;;;12.30;;
2720;SDS011;1368;49.484;11.112;2023-05-23T09:18:00;13.20;;;10.40;;
2720;SDS011;1368;49.484;11.112;2023-05-23T09:20:26;14.60;;;11.90;;
2720;SDS011;1368;49.484;11.112;2023-05-23T09:22:53;13.10;;;11.80;;
2720;SDS011;1368;49.484;11.112;2023-05-23T09:25:19;16.30;;;12.00;;
2720;SDS011;1368;49.484;11.112;2023-05-23T09:27:45;14.70;;;11.33;;
2720;SDS011;1368;49.484;11.112;2023-05-23T09:30:11;15.33;;;10.60;;
2720;SDS011;1368;49.484;11.112;2023-05-23T09:32:37;14.50;;;12.80;;
2720;SDS011;1368;49.484;11.112;2023-05-23T09:35:04;15.83;;;10.83;;
2720;SDS011;1368;49.484;11.112;2023-05-23T09:39:59;12.67;;;11.27;;
2720;SDS011;1368;49.484;11.112;2023-05-23T09:42:30;11.40;;;10.20;;
2720;SDS011;1368;49.484;11.112;2023-05-23T09:44:57;12.93;;;10.90;;
2720;SDS011;1368;49.484;11.112;2023-05-23T09:47:23;12.10;;;10.90;;
2720;SDS011;1368;49.484;11.112;2023-05-23T09:49:48;15.03;;;11.20;;
2720;SDS011;1368;49.484;11.112;2023-05-23T09:52:15;13.20;;;11.10;;
2720;SDS011;1368;49.484;11.112;2023-05-23T09:54:41;13.73;;;11.60;;
2720;SDS011;1368;49.484;11.112;2023-05-23T09:57:09;13.93;;;10.87;;
2720;SDS011;1368;49.484;11.112;2023-05-23T09:59:37;15.10;;;11.20;;
2720;SDS011;1368;49.484;11.112;2023-05-23T10:02:05;11.10;;;10.00;;
2720;SDS011;1368;49.484;11.112;2023-05-23T10:04:34;12.50;;;11.27;;
2720;SDS011;1368;49.484;11.112;2023-05-23T10:07:18;14.63;;;11.30;;
2720;SDS011;1368;49.484;11.112;2023-05-23T10:09:48;12.37;;;10.63;;
2720;SDS011;1368;49.484;11.112;2023-05-23T10:14:48;11.50;;;9.43;;
2720;SDS011;1368;49.484;11.112;2023-05-23T10:17:18;10.63;;;9.43;;
2720;SDS011;1368;49.484;11.112;2023-05-23T10:20:00;11.60;;;9.50;;
2720;SDS011;1368;49.484;11.112;2023-05-23T10:22:34;12.83;;;11.00;;
2720;SDS011;1368;49.484;11.112;2023-05-23T10:25:01;9.83;;;8.83;;
2720;SDS011;1368;49.484;11.112;2023-05-23T10:27:29;11.80;;;8.57;;
2720;SDS011;1368;49.484;11.112;2023-05-23T10:29:55;9.33;;;8.23;;
2720;SDS011;1368;49.484;11.112;2023-05-23T10:32:22;11.50;;;9.47;;
2720;SDS011;1368;49.484;11.112;2023-05-23T10:35:06;10.43;;;8.90;;
2720;SDS011;1368;49.484;11.112;2023-05-23T10:40:06;10.67;;;8.00;;
2720;SDS011;1368;49.484;11.112;2023-05-23T10:43:00;8.90;;;8.00;;
2720;SDS011;1368;49.484;11.112;2023-05-23T10:45:49;8.50;;;7.57;;
2720;SDS011;1368;49.484;11.112;2023-05-23T10:48:19;10.00;;;7.77;;
2720;SDS011;1368;49.484;11.112;2023-05-23T10:51:03;9.80;;;7.50;;
2720;SDS011;1368;49.484;11.112;2023-05-23T10:53:30;9.17;;;8.27;;
2720;SDS011;1368;49.484;11.112;2023-05-23T10:55:58;9.03;;;7.50;;
2720;SDS011;1368;49.484;11.112;2023-05-23T10:58:23;10.73;;;7.27;;
2720;SDS011;1368;49.484;11.112;2023-05-23T11:00:50;7.47;;;6.50;;
2720;SDS011;1368;49.484;11.112;2023-05-23T11:04:04;7.90;;;6.20;;
2720;SDS011;1368;49.484;11.112;2023-05-23T11:06:29;10.97;;;6.73;;
2720;SDS011;1368;49.484;11.112;2023-05-23T11:09:13;7.70;;;6.70;;
2720;SDS011;1368;49.484;11.112;2023-05-23T11:14:19;6.77;;;5.73;;
2720;SDS011;1368;49.484;11.112;2023-05-23T11:16:55;6.83;;;6.13;;
2720;SDS011;1368;49.484;11.112;2023-05-23T11:19:27;8.90;;;6.83;;
2720;SDS011;1368;49.484;11.112;2023-05-23T11:22:00;6.87;;;5.87;;
2720;SDS011;1368;49.484;11.112;2023-05-23T11:27:53;8.90;;;6.63;;
2720;SDS011;1368;49.484;11.112;2023-05-23T11:30:14;6.13;;;5.50;;
2720;SDS011;1368;49.484;11.112;2023-05-23T11:32:41;7.20;;;6.50;;
2720;SDS011;1368;49.484;11.112;2023-05-23T11:35:13;7.93;;;5.80;;
2720;SDS011;1368;49.484;11.112;2023-05-23T11:37:40;6.93;;;5.93;;
2720;SDS011;1368;49.484;11.112;2023-05-23T11:42:58;7.07;;;5.83;;
2720;SDS011;1368;49.484;11.112;2023-05-23T11:45:26;7.60;;;5.40;;
2720;SDS011;1368;49.484;11.112;2023-05-23T11:47:53;7.60;;;5.97;;
2720;SDS011;1368;49.484;11.112;2023-05-23T11:50:19;7.20;;;5.70;;
2720;SDS011;1368;49.484;11.112;2023-05-23T11:52:45;5.87;;;5.20;;
2720;SDS011;1368;49.484;11.112;2023-05-23T11:55:15;7.10;;;5.00;;
2720;SDS011;1368;49.484;11.112;2023-05-23T11:57:42;7.37;;;6.23;;
2720;SDS011;1368;49.484;11.112;2023-05-23T12:00:08;8.20;;;5.63;;
2720;SDS011;1368;49.484;11.112;2023-05-23T12:02:38;6.40;;;4.70;;
2720;SDS011;1368;49.484;11.112;2023-05-23T12:05:08;6.57;;;4.77;;
2720;SDS011;1368;49.484;11.112;2023-05-23T12:07:35;9.07;;;5.57;;
2720;SDS011;1368;49.484;11.112;2023-05-23T12:10:11;7.43;;;5.40;;
2720;SDS011;1368;49.484;11.112;2023-05-23T12:12:41;6.57;;;4.93;;
2720;SDS011;1368;49.484;11.112;2023-05-23T12:15:08;7.30;;;5.27;;
2720;SDS011;1368;49.484;11.112;2023-05-23T12:17:35;7.60;;;5.30;;
2720;SDS011;1368;49.484;11.112;2023-05-23T12:20:02;5.97;;;5.30;;
2720;SDS011;1368;49.484;11.112;2023-05-23T12:22:29;5.70;;;4.90;;
2720;SDS011;1368;49.484;11.112;2023-05-23T12:24:55;5.80;;;4.80;;
2720;SDS011;1368;49.484;11.112;2023-05-23T12:27:27;8.77;;;4.70;;
2720;SDS011;1368;49.484;11.112;2023-05-23T12:30:04;5.90;;;4.77;;
2720;SDS011;1368;49.484;11.112;2023-05-23T12:32:31;5.57;;;4.30;;
2720;SDS011;1368;49.484;11.112;2023-05-23T12:34:57;4.80;;;4.00;;
2720;SDS011;1368;49.484;11.112;2023-05-23T12:37:23;5.07;;;3.30;;
2720;SDS011;1368;49.484;11.112;2023-05-23T12:39:49;5.17;;;3.43;;
2720;SDS011;1368;49.484;11.112;2023-05-23T12:42:15;15.43;;;4.43;;
2720;SDS011;1368;49.484;11.112;2023-05-23T12:44:41;6.50;;;4.33;;
2720;SDS011;1368;49.484;11.112;2023-05-23T12:47:07;5.07;;;3.60;;
2720;SDS011;1368;49.484;11.112;2023-05-23T12:49:34;6.13;;;4.67;;
2720;SDS011;1368;49.484;11.112;2023-05-23T12:51:59;6.00;;;3.83;;
2720;SDS011;1368;49.484;11.112;2023-05-23T12:54:25;4.83;;;3.57;;
2720;SDS011;1368;49.484;11.112;2023-05-23T12:56:51;4.50;;;3.70;;
2720;SDS011;1368;49.484;11.112;2023-05-23T12:59:16;8.90;;;4.30;;
2720;SDS011;1368;49.484;11.112;2023-05-23T13:01:42;6.73;;;4.70;;
2720;SDS011;1368;49.484;11.112;2023-05-23T13:04:07;4.70;;;3.77;;
2720;SDS011;1368;49.484;11.112;2023-05-23T13:06:33;6.73;;;4.10;;
2720;SDS011;1368;49.484;11.112;2023-05-23T13:08:58;5.87;;;3.80;;
2720;SDS011;1368;49.484;11.112;2023-05-23T13:11:24;9.13;;;4.67;;
2720;SDS011;1368;49.484;11.112;2023-05-23T13:13:50;8.20;;;4.40;;
2720;SDS011;1368;49.484;11.112;2023-05-23T13:16:16;5.60;;;4.07;;
2720;SDS011;1368;49.484;11.112;2023-05-23T13:18:42;8.10;;;4.53;;
2720;SDS011;1368;49.484;11.112;2023-05-23T13:21:08;6.73;;;3.93;;
2720;SDS011;1368;49.484;11.112;2023-05-23T13:23:34;5.30;;;3.27;;
2720;SDS011;1368;49.484;11.112;2023-05-23T13:26:01;5.07;;;4.07;;
2720;SDS011;1368;49.484;11.112;2023-05-23T13:28:27;8.13;;;4.40;;
2720;SDS011;1368;49.484;11.112;2023-05-23T13:30:52;6.40;;;4.00;;
2720;SDS011;1368;49.484;11.112;2023-05-23T13:33:18;6.60;;;4.00;;
2720;SDS011;1368;49.484;11.112;2023-05-23T13:35:45;5.07;;;3.80;;
2720;SDS011;1368;49.484;11.112;2023-05-23T13:38:13;5.83;;;4.20;;
2720;SDS011;1368;49.484;11.112;2023-05-23T13:40:38;5.13;;;3.60;;
2720;SDS011;1368;49.484;11.112;2023-05-23T13:43:04;6.77;;;4.23;;
2720;SDS011;1368;49.484;11.112;2023-05-23T13:45:29;5.73;;;3.87;;
2720;SDS011;1368;49.484;11.112;2023-05-23T13:47:55;4.37;;;3.63;;
2720;SDS011;1368;49.484;11.112;2023-05-23T13:50:21;8.33;;;4.20;;
2720;SDS011;1368;49.484;11.112;2023-05-23T13:52:46;7.03;;;4.27;;
2720;SDS011;1368;49.484;11.112;2023-05-23T13:55:12;5.20;;;4.00;;
2720;SDS011;1368;49.484;11.112;2023-05-23T13:57:37;5.60;;;4.00;;
2720;SDS011;1368;49.484;11.112;2023-05-23T14:00:03;5.90;;;4.17;;
2720;SDS011;1368;49.484;11.112;2023-05-23T14:02:29;5.03;;;3.90;;
2720;SDS011;1368;49.484;11.112;2023-05-23T14:04:56;7.00;;;3.77;;
2720;SDS011;1368;49.484;11.112;2023-05-23T14:07:22;5.93;;;3.70;;
2720;SDS011;1368;49.484;11.112;2023-05-23T14:09:47;6.23;;;3.90;;
2720;SDS011;1368;49.484;11.112;2023-05-23T14:12:13;8.20;;;4.97;;
2720;SDS011;1368;49.484;11.112;2023-05-23T14:14:39;5.40;;;4.07;;
2720;SDS011;1368;49.484;11.112;2023-05-23T14:17:04;7.30;;;4.20;;
2720;SDS011;1368;49.484;11.112;2023-05-23T14:19:30;7.57;;;3.83;;
2720;SDS011;1368;49.484;11.112;2023-05-23T14:21:55;5.50;;;3.63;;
2720;SDS011;1368;49.484;11.112;2023-05-23T14:24:21;4.57;;;3.93;;
2720;SDS011;1368;49.484;11.112;2023-05-23T14:26:46;6.03;;;3.80;;
2720;SDS011;1368;49.484;11.112;2023-05-23T14:29:13;5.13;;;3.30;;
2720;SDS011;1368;49.484;11.112;2023-05-23T14:31:39;8.20;;;4.50;;
2720;SDS011;1368;49.484;11.112;2023-05-23T14:34:05;10.27;;;4.27;;
2720;SDS011;1368;49.484;11.112;2023-05-23T14:36:31;9.30;;;4.30;;
2720;SDS011;1368;49.484;11.112;2023-05-23T14:38:56;6.20;;;3.80;;
2720;SDS011;1368;49.484;11.112;2023-05-23T14:41:22;6.50;;;4.20;;
2720;SDS011;1368;49.484;11.112;2023-05-23T14:43:48;5.37;;;3.80;;
2720;SDS011;1368;49.484;11.112;2023-05-23T14:46:13;4.77;;;4.00;;
2720;SDS011;1368;49.484;11.112;2023-05-23T14:48:41;4.90;;;4.17;;
2720;SDS011;1368;49.484;11.112;2023-05-23T14:51:06;7.60;;;4.17;;
2720;SDS011;1368;49.484;11.112;2023-05-23T14:53:32;4.73;;;3.70;;
2720;SDS011;1368;49.484;11.112;2023-05-23T14:55:58;6.57;;;4.00;;
2720;SDS011;1368;49.484;11.112;2023-05-23T14:58:23;8.27;;;3.53;;
2720;SDS011;1368;49.484;11.112;2023-05-23T15:00:49;4.97;;;3.33;;
2720;SDS011;1368;49.484;11.112;2023-05-23T15:03:16;7.50;;;3.67;;
2720;SDS011;1368;49.484;11.112;2023-05-23T15:05:42;4.50;;;3.53;;